Latest Coastal Weather Observations for Yamba

IDN60701

Issued at 4:45 am EST Sunday 24 August 2014 (issued every 10 minutes, with the page automatically refreshed every 10 minutes)

About coastal observations | Map of coastal stations | Coastal observations for NSW | Marine services | Other Formats
Station Details ID: 058012 Name: YAMBA PILOT STATION Lat: -29.43 Lon: 153.36 Height: 27.4 m
Data from the previous 72 hours. | See also: Recent months at Yamba
Date/Time
EST
Temp

°C
Wind Pressure Rain
since 9am
mm
Weather Cloud Vis
km
Sea
Height
m
Swell
Dir
 
Speed
knots
Gust
knots
hPa Trend Height
m
Period
s
Dir
24/04:30am 14.8 S 9 13 1024.4 - 6.8 - - - - - - -
24/04:00am 15.3 S 9 17 1024.3 - 6.8 - - - - - - -
24/03:30am 15.9 SE 17 27 1024.2 - 6.8 - - - - - - -
24/03:00am 17.2 SE 15 20 1024.3 - 6.6 - - - - - - -
24/02:30am 16.7 SE 15 19 1024.6 - 6.6 - - - - - - -
24/02:00am 16.8 SE 19 23 1024.9 - 6.6 - - - - - - -
24/01:30am 16.9 SE 19 23 1025.1 - 6.4 - - - - - - -
24/01:00am 16.6 SSE 14 21 1025.3 - 6.2 - - - - - - -
24/12:30am 15.8 SSE 8 19 1025.7 - 5.6 - - - - - - -
24/12:00am 16.4 SE 20 23 1025.7 - 4.8 - - - - - - -
 
Date/Time
EST
Temp

°C
Wind Pressure Rain
since 9am
mm
Weather Cloud Vis
km
Sea
Height
m
Swell
Dir
 
Speed
knots
Gust
knots
hPa Trend Height
m
Period
s
Dir
23/11:30pm 17.2 SE 22 27 1025.7 - 4.8 - - - - - - -
23/11:00pm 17.1 SE 20 24 1025.9 - 4.8 - - - - - - -
23/10:30pm 17.0 SE 19 24 1025.9 - 4.8 - - - - - - -
23/10:00pm 16.7 SE 20 25 1025.9 - 4.8 - - - - - - -
23/09:30pm 16.6 SE 17 21 1025.9 - 4.8 - - - - - - -
23/09:00pm 16.4 ESE 18 23 1026.1 - 4.6 - - - - - - -
23/08:43pm 17.2 ESE 18 30 1026.0 - 4.4 - - - - - - -
23/08:42pm 17.2 ESE 18 30 1026.0 - 4.4 - - - - - - -
23/08:30pm 17.0 ESE 17 24 1026.1 - 4.4 - - - - - - -
23/08:00pm 16.9 SE 20 25 1026.1 - 4.4 - - - - - - -
23/07:30pm 17.0 SE 21 25 1025.9 - 3.8 - - - - - - -
23/07:00pm 16.9 SE 20 24 1025.6 - 3.8 - - - - - - -
23/06:52pm 16.2 SE 20 24 1025.6 - 3.8 - - - - - - -
23/06:30pm 15.4 SSE 11 16 1025.6 - 3.6 - - - - - - -
23/06:00pm 16.9 SE 16 21 1025.3 - 0.2 - - - - - - -
23/05:30pm 17.1 SE 19 24 1025.1 - 0.2 - - - - - - -
23/05:00pm 17.8 SE 20 28 1024.7 - 0.0 - - - - - - -
23/04:30pm 17.6 SE 18 24 1024.5 - 0.0 - - - - - - -
23/04:00pm 18.1 ESE 16 21 1024.2 - 0.0 - - - - - - -
23/03:30pm 18.2 SE 18 23 1024.2 - 0.0 - - - - - - -
23/03:00pm 18.1 ESE 16 22 1024.3 R 0.0 Fine Cloudy 30 3 2.0 8 SE
23/02:30pm 18.1 ESE 16 20 1024.4 - 0.0 - - - - - - -
23/02:00pm 18.7 ESE 15 23 1024.3 - 0.0 - - - - - - -
23/01:30pm 18.7 ESE 17 22 1024.5 - 0.0 - - - - - - -
23/01:24pm 18.7 ESE 16 22 1024.6 - 0.0 - - - - - - -
23/01:00pm 19.4 SE 10 12 1024.8 - 0.0 - - - - - - -
23/12:30pm 18.8 ESE 11 15 1025.2 - 0.0 - - - - - - -
23/12:00pm 18.7 ESE 11 14 1025.6 - 0.0 - - - - - - -
23/11:30am 17.7 E 11 16 1026.0 - 0.0 - - - - - - -
23/11:00am 17.4 E 12 19 1026.3 - 0.0 - - - - - - -
23/10:30am 18.4 ESE 14 19 1026.5 - 0.0 - - - - - - -
23/10:00am 18.4 ESE 14 22 1026.5 - 0.0 - - - - - - -
23/09:30am 18.2 ESE 18 25 1026.2 - 0.0 - - - - - - -
23/09:00am 18.1 ESE 22 27 1026.2 R 10.2 Distant precip. Cloudy 25 3 2.5 8 SE
23/08:30am 18.1 SE 21 27 1026.1 - 10.2 - - - - - - -
23/08:00am 18.0 ESE 20 26 1025.6 - 10.2 - - - - - - -
23/07:30am 17.9 ESE 17 25 1025.5 - 10.2 - - - - - - -
23/07:00am 18.1 ESE 15 23 1025.2 - 10.2 - - - - - - -
23/06:30am 18.1 E 14 18 1024.7 - 10.2 - - - - - - -
23/06:00am 17.5 ESE 19 25 1024.3 - 10.2 - - - - - - -
23/05:30am 17.6 ESE 17 24 1024.3 - 10.2 - - - - - - -
23/05:15am 17.5 ESE 15 26 1024.3 - 10.6 - - - - - - -
23/05:14am 17.5 ESE 15 26 1024.3 - 10.2 - - - - - - -
23/05:00am 17.3 ESE 17 23 1024.1 - 10.2 - - - - - - -
23/04:30am 16.8 ESE 14 20 1024.2 - 9.2 - - - - - - -
23/04:00am 16.8 SE 12 18 1024.1 - 8.6 - - - - - - -
23/03:30am 14.2 SSE 4 6 1024.2 - 8.6 - - - - - - -
23/03:00am 14.2 WSW 6 8 1024.7 - 8.6 - - - - - - -
23/02:30am 14.5 ENE 6 13 1025.0 - 8.2 - - - - - - -
23/02:00am 15.0 N 4 8 1025.3 - 7.4 - - - - - - -
23/01:30am 14.9 SSW 6 8 1025.4 - 5.4 - - - - - - -
23/01:00am 15.7 SSE 7 12 1025.8 - 5.2 - - - - - - -
23/12:30am 14.9 ESE 10 21 1026.2 - 4.4 - - - - - - -
23/12:00am 16.0 SE 17 23 1026.0 - 2.6 - - - - - - -
 
Date/Time
EST
Temp

°C
Wind Pressure Rain
since 9am
mm
Weather Cloud Vis
km
Sea
Height
m
Swell
Dir
 
Speed
knots
Gust
knots
hPa Trend Height
m
Period
s
Dir
22/11:30pm 16.6 SE 16 21 1026.3 - 2.4 - - - - - - -
22/11:00pm 16.9 ESE 17 24 1026.1 - 2.4 - - - - - - -
22/10:30pm 17.3 ESE 16 21 1026.2 - 2.4 - - - - - - -
22/10:00pm 17.1 ESE 13 23 1026.4 - 2.4 - - - - - - -
22/09:30pm 18.0 SE 16 22 1026.5 - 2.4 - - - - - - -
22/09:00pm 17.9 SE 12 17 1026.5 - 2.4 - - - - - - -
22/08:30pm 16.8 SSE 10 15 1026.4 - 2.4 - - - - - - -
22/08:00pm 16.7 SE 20 25 1026.7 - 2.4 - - - - - - -
22/07:48pm 16.7 ESE 19 26 1026.5 - 2.8 - - - - - - -
22/07:30pm 17.8 SE 15 18 1026.5 - 2.4 - - - - - - -
22/07:00pm 17.3 SSE 11 16 1026.2 - 2.4 - - - - - - -
22/06:30pm 17.3 SSE 14 19 1026.1 - 2.4 - - - - - - -
22/06:00pm 17.6 SE 13 17 1025.7 - 2.4 - - - - - - -
22/05:30pm 17.2 SSE 14 19 1025.3 - 2.4 - - - - - - -
22/05:00pm 17.5 SE 15 19 1025.4 - 2.4 - - - - - - -
22/04:30pm 17.3 SE 15 19 1025.2 - 2.4 - - - - - - -
22/04:00pm 16.7 SSE 13 18 1025.3 - 2.4 - - - - - - -
22/03:30pm 16.9 SE 9 16 1025.4 - 2.4 - - - - - - -
22/03:00pm 16.6 SSE 11 14 1025.4 F 2.4 Fine Cloudy 30 3 2.0 8 SE
22/02:30pm 16.1 SE 17 23 1025.6 - 2.4 - - - - - - -
22/02:00pm 16.0 SSE 12 18 1025.8 - 2.4 - - - - - - -
22/01:30pm 15.8 S 10 16 1026.1 - 2.2 - - - - - - -
22/01:00pm 15.8 SSE 8 13 1026.3 - 2.0 - - - - - - -
22/12:30pm 15.9 S 10 16 1026.6 - 1.8 - - - - - - -
22/12:00pm 16.7 S 11 15 1027.0 - 1.8 - - - - - - -
22/11:30am 16.7 SSE 13 18 1027.2 - 1.8 - - - - - - -
22/11:00am 15.0 S 7 9 1027.7 - 1.8 - - - - - - -
22/10:30am 14.6 SSW 7 10 1028.0 - 1.8 - - - - - - -
22/10:00am 14.4 SW 3 6 1028.4 - 1.8 - - - - - - -
22/09:30am 13.9 SSW 6 10 1028.4 - 1.8 - - - - - - -
22/09:00am 14.6 SSE 8 16 1028.1 R 39.6 Rain Cloudy 25 3 2.0 8 SE
22/08:30am 14.8 SE 5 7 1027.9 - 36.4 - - - - - - -
22/08:00am 14.8 SSE 14 19 1027.6 - 34.2 - - - - - - -
22/07:30am 14.5 ESE 13 22 1027.5 - 31.8 - - - - - - -
22/07:00am 14.6 E 12 19 1027.2 - 16.8 - - - - - - -
22/06:30am 15.6 SSE 12 18 1026.6 - 14.0 - - - - - - -
22/06:00am 15.8 SE 15 20 1025.9 - 14.0 - - - - - - -
22/05:30am 16.2 SE 16 23 1025.9 - 14.0 - - - - - - -
22/05:00am 16.0 SE 15 19 1025.7 - 14.0 - - - - - - -
22/04:30am 16.1 SSE 12 17 1025.6 - 14.0 - - - - - - -
22/04:00am 16.2 SE 18 22 1025.5 - 14.0 - - - - - - -
22/03:30am 16.1 SE 18 23 1025.2 - 14.0 - - - - - - -
22/03:00am 16.6 SE 17 22 1025.2 - 14.0 - - - - - - -
22/02:30am 16.5 SE 16 20 1025.5 - 14.0 - - - - - - -
22/02:00am 16.4 SE 19 24 1025.6 - 14.0 - - - - - - -
22/01:30am 16.6 SE 18 22 1025.8 - 14.0 - - - - - - -
22/01:00am 16.9 SE 14 19 1026.1 - 14.0 - - - - - - -
22/12:30am 16.9 SE 16 19 1025.9 - 14.0 - - - - - - -
22/12:00am 17.0 SE 15 19 1025.9 - 14.0 - - - - - - -
 
Date/Time
EST
Temp

°C
Wind Pressure Rain
since 9am
mm
Weather Cloud Vis
km
Sea
Height
m
Swell
Dir
 
Speed
knots
Gust
knots
hPa Trend Height
m
Period
s
Dir
21/11:30pm 17.2 SE 12 16 1026.3 - 14.0 - - - - - - -
21/11:00pm 17.0 SE 11 14 1026.1 - 14.0 - - - - - - -
21/10:30pm 17.0 SE 12 15 1026.3 - 14.0 - - - - - - -
21/10:00pm 16.9 SE 14 19 1025.8 - 14.0 - - - - - - -
21/09:30pm 16.9 SE 16 20 1026.0 - 14.0 - - - - - - -
21/09:00pm 16.9 SE 15 18 1026.1 - 14.0 - - - - - - -
21/08:30pm 16.6 SE 15 19 1026.1 - 14.0 - - - - - - -
21/08:16pm 15.9 SE 15 21 1026.0 - 14.0 - - - - - - -
21/08:15pm 15.9 SE 15 21 1026.0 - 14.0 - - - - - - -
21/08:00pm 14.4 S 6 10 1026.1 - 14.0 - - - - - - -
21/07:50pm 14.6 S 6 8 1026.1 - 14.0 - - - - - - -
21/07:30pm 14.7 SSE 9 13 1026.0 - 13.6 - - - - - - -
21/07:00pm 14.6 SSE 21 29 1025.6 - 12.4 - - - - - - -
21/06:55pm 14.9 SSE 17 28 1025.6 - 12.4 - - - - - - -
21/06:54pm 14.9 SSE 18 24 1025.6 - 12.4 - - - - - - -
21/06:52pm 14.9 SSE 15 23 1025.6 - 12.4 - - - - - - -
21/06:30pm 14.6 SSW 4 6 1025.4 - 12.2 - - - - - - -
21/06:00pm 14.9 SE 10 14 1025.3 - 11.4 - - - - - - -
21/05:30pm 15.1 SE 11 15 1025.0 - 10.6 - - - - - - -
21/05:00pm 14.2 S 11 17 1024.6 - 10.0 - - - - - - -
21/04:30pm 15.5 SE 11 14 1023.9 - 8.6 - - - - - - -
21/04:00pm 15.3 SSE 13 17 1023.8 - 8.4 - - - - - - -
21/03:30pm 15.2 S 10 16 1023.5 - 8.2 - - - - - - -
21/03:00pm 14.8 S 10 16 1023.6 R 7.8 Rain Cloudy 25 3 2.0 8 SE
21/02:30pm 15.1 SSE 11 16 1023.6 - 6.8 - - - - - - -
21/02:00pm 16.7 S 7 11 1023.5 - 3.6 - - - - - - -
21/01:30pm 16.0 S 11 16 1023.7 - 3.6 - - - - - - -
21/01:00pm 15.5 SSE 8 11 1023.9 - 3.6 - - - - - - -
21/12:30pm 15.2 SE 18 24 1024.3 - 0.8 - - - - - - -
21/12:19pm 16.5 SE 20 24 1024.3 - 0.2 - - - - - - -
21/12:18pm 16.5 SE 20 24 1024.3 - 0.2 - - - - - - -
21/12:00pm 17.4 SSE 14 23 1024.5 - 0.2 - - - - - - -
21/11:30am 17.2 SSE 14 20 1024.9 - 0.2 - - - - - - -
21/11:00am 16.8 S 12 19 1025.0 - 0.2 - - - - - - -
21/10:30am 16.6 SSE 13 19 1025.3 - 0.0 - - - - - - -
21/10:19am 15.5 SE 17 27 1025.5 - 0.0 - - - - - - -
21/10:14am 16.1 SSE 15 27 1025.5 - 0.0 - - - - - - -
21/10:00am 17.2 S 12 19 1025.3 - 0.0 - - - - - - -
21/09:30am 17.3 SSE 13 21 1025.4 - 0.0 - - - - - - -
21/09:00am 16.7 S 12 22 1025.3 S 3.2 Fine Mostly cloudy 35 3 2.0 8 SE
21/08:30am 16.4 S 11 19 1025.1 - 3.2 - - - - - - -
21/08:00am 14.7 S 10 16 1025.1 - 3.2 - - - - - - -
21/07:30am 14.4 S 10 16 1024.8 - 3.2 - - - - - - -
21/07:00am 13.3 SSW 7 13 1024.7 - 3.2 - - - - - - -
21/06:30am 12.6 SSW 5 7 1024.4 - 3.2 - - - - - - -
21/06:00am 12.7 SSW 4 7 1024.2 - 3.2 - - - - - - -
21/05:30am 12.5 S 5 7 1024.0 - 3.0 - - - - - - -
21/05:00am 12.4 WSW 4 5 1023.7 - 3.0 - - - - - - -

Other Formats:

Comma delimited format used in spreadsheet applications
http://www.bom.gov.au/fwo/IDN60701/IDN60701.94589.axf

JavaScript Object Notation format (JSON) in row-major order
http://www.bom.gov.au/fwo/IDN60701/IDN60701.94589.json